Řízení letového provozu České republiky  
Aktualizace dat:  09.12.2022 11:50:33 UTC English version
   METEO Zobrazení stránky:  09.12.2022 11:51:42 UTC  
vysvětlivky
METAR EDAC 091120Z VRB01KT 9999 FEW014 SCT026 OVC036 02/M00 Q1005=
METAR EDDB 091120Z AUTO 08003KT 030V110 0400 0350 R07L/0650N R07R/0500N FZFG VV003 M02/M02 Q1008 NOSIG=
METAR EDDC 091120Z AUTO 13005KT 090V150 9999 BKN014 BKN023 BKN029 03/M01 Q1005 TEMPO BKN015=
METAR EDDE 091120Z AUTO 36004KT 330V030 9000 BKN006 01/M00 Q1004 NOSIG=
METAR EDDF 091120Z AUTO 03006KT 360V070 9999 FEW013 02/M01 Q1004 NOSIG=
METAR EDDM 091120Z AUTO 06004KT 6000 OVC004 M00/M01 Q1001 BECMG OVC006=
METAR EDDN 091120Z AUTO 02003KT 9999 OVC040 02/M02 Q1003 NOSIG=
METAR EDDP 091120Z AUTO 06006KT 020V080 6000 OVC003 01/00 Q1006 TEMPO 4000 BR=
METAR EDQM 091120Z 05003KT 360V100 9999 FEW009 BKN037 M01/M02 Q1003=
METAR EPBY 091130Z 18004KT 9999 SCT006 BKN030 02/M00 Q1009=
METAR EPGD 091130Z 28003KT 5000 BR SCT014 M03/M04 Q1009=
METAR EPKK 091130Z 08003KT 9999 FEW023 04/00 Q1007=
METAR EPKT 091130Z VRB02KT 9999 BKN031 02/M00 Q1007=
METAR EPLB 091130Z 30003KT 9999 SCT034 04/M01 Q1008=
METAR EPLL 091130Z VRB02KT 9999 FEW020 03/M01 Q1008=
METAR EPMO 091130Z 26003KT 230V300 3800 -SN BR BKN006 OVC038 01/01 Q1009=
METAR EPPO 091130Z VRB02KT 3500 BR OVC002 01/00 Q1008=
METAR EPRZ 091130Z 23011KT 9999 BKN018 04/00 Q1008=
METAR EPWA 091130Z 00000KT 6000 NSC 01/M00 Q1008 NOSIG=
METAR EPWR 091130Z 06005KT 030V140 9999 FEW021 04/M00 Q1007=
METAR LHBP 091130Z 09008KT 6000 -RA OVC005 04/04 Q1006 NOSIG=
METAR LHSM 091115Z AUTO 12004KT 6000 BKN004 06/06 Q1004 NOSIG=
METAR LKBC NIL
METAR LKCS 091130Z AUTO VRB02KT 3900 BR OVC004/// M01/M02 Q1003=
METAR LKCV 091130Z 06005KT 030V090 9999 BKN024 OVC031 01/M01 Q1005 NOSIG RMK WHT WHT=
METAR LKKB 091130Z 06005KT 7000 SCT006 BKN090 M00/M02 Q1005 NOSIG RMK BLU BLU=
METAR LKKU 091100Z 10005KT 9999 OVC016 04/01 Q1005=
METAR LKKV 091130Z 11008KT 9999 SCT017 M00/M04 Q1003=
SPECI LKLN 091141Z AUTO VRB02KT 9999 FEW012 BKN084 M00/M02 Q1004=
METAR LKMT 091130Z 03005KT 9000 OVC029 02/01 Q1006 NOSIG=
METAR LKNA 091130Z 09008KT 060V120 0500 R30/0600 -DZ FG BKN001 OVC004 01/00 Q1003 NOSIG RMK RED RED=
METAR LKPD 091130Z 09004KT 8000 SCT024 OVC040 02/M00 Q1005 NOSIG RMK BLU BLU=
SPECI LKPJ 091138Z AUTO VRB02KT 2600 DZ OVC013/// 02/01 Q1005=
METAR LKPR 091130Z 02005KT 8000 FEW007 M00/M02 Q1004 NOSIG=
METAR LKTB 091130Z 07010KT 2200 DZ BR SCT005 OVC009 02/01 Q1004 NOSIG=
METAR LKVO 091100Z 08004KT 8000 NSC M00/M02 Q1005=
METAR LOWG 091120Z VRB01KT 6000 R16/0500D R34/P1500D FEW005 SCT008 BKN025 02/01 Q1004 TEMPO 4000 -RA BKN008=
METAR LOWI 091120Z VRB01KT 9999 FEW060 OVC100 00/M03 Q1000 NOSIG=
METAR LOWK 091120Z 29002KT 9999 RASN FEW009 BKN022 BKN040 01/M00 Q1004 RERA TEMPO -RASN=
METAR LOWL 091120Z AUTO VRB01KT 9999 SCT019 BKN020 01/M01 Q1002 NOSIG=
METAR LOWS 091120Z VRB01KT 9999 FEW007 BKN070 M01/M02 Q1001 NOSIG=
METAR LOWW 091120Z 13014KT 9000 -RA FEW003 BKN004 OVC020 04/03 Q1003 TEMPO FEW003 BKN006 OVC020=
METAR LOXZ 091120Z 09004KT 9999 FEW015 SCT030 BKN055 01/M02 Q1002 TEMPO -SNRA=
METAR LZIB 091130Z 07006KT 3200 RA BR OVC003 04/03 Q1005 NOSIG=
METAR LZKZ 091130Z VRB02KT 8000 -RA SCT009 OVC030 03/01 Q1009 NOSIG=
METAR LZPP 091130Z 11008KT 070V130 9999 -DZ BKN010 OVC020 04/02 Q1005=
METAR LZTT 091130Z VRB02KT 9999 FEW016 BKN030 M01/M03 Q1006 TEMPO BKN006 OVC010=
METAR LZZI 091130Z 06005KT 9999 OVC028 03/M00 Q1005=